This is the latest recevied weather packets stored in our database for station/object DN9EM-1. If no packets are shown the sender has not sent any weather packets the latest 10 day(s).
| Time | Temp. | Humidity | Pressure | Rain* | Wind** | Luminosity | Snow |
|---|---|---|---|---|---|---|---|
| 1777971921 | 13.33° C | 65% | 1013.7 hPa | 0 mm | - | - | - |
| 1777971318 | 12.78° C | 67% | 1013.6 hPa | 0 mm | - | - | - |
| 1777970716 | 13.33° C | 65% | 1013.7 hPa | 0 mm | - | - | - |
| 1777970173 | 12.22° C | 70% | 1013.8 hPa | 0 mm | - | - | - |
| 1777969571 | 12.78° C | 69% | 1013.7 hPa | 0 mm | - | - | - |
| 1777968968 | 12.78° C | 69% | 1013.7 hPa | 0 mm | - | - | - |
| 1777968366 | 11.67° C | 73% | 1013.7 hPa | 0 mm | - | - | - |
| 1777967763 | 10.56° C | 76% | 1013.8 hPa | 0 mm | - | - | - |
| 1777967161 | 10° C | 77% | 1013.7 hPa | 0 mm | - | - | - |
| 1777966558 | 10° C | 78% | 1013.7 hPa | 0 mm | - | - | - |
| 1777965956 | 10° C | 78% | 1013.8 hPa | 0 mm | - | - | - |
| 1777965353 | 10° C | 78% | 1013.8 hPa | 0 mm | - | - | - |
| 1777964750 | 10° C | 77% | 1013.8 hPa | 0 mm | - | - | - |
| 1777964147 | 9.44° C | 78% | 1013.7 hPa | 0 mm | - | - | - |
| 1777963545 | 9.44° C | 79% | 1013.8 hPa | 0 mm | - | - | - |
| 1777962942 | 9.44° C | 80% | 1013.8 hPa | 0 mm | - | - | - |
| 1777962340 | 8.89° C | 81% | 1013.9 hPa | 0 mm | - | - | - |
| 1777961742 | 8.89° C | 82% | 1014 hPa | 0 mm | - | - | - |
| 1777961134 | 8.33° C | 82% | 1013.9 hPa | 0 mm | - | - | - |
| 1777960537 | 8.33° C | 82% | 1014 hPa | 0 mm | - | - | - |
| 1777959930 | 7.78° C | 83% | 1013.9 hPa | 0 mm | - | - | - |
| 1777959327 | 7.78° C | 83% | 1013.9 hPa | 0 mm | - | - | - |
| 1777958724 | 7.78° C | 84% | 1013.9 hPa | 0 mm | - | - | - |
| 1777958122 | 7.78° C | 84% | 1014 hPa | 0 mm | - | - | - |
| 1777957519 | 7.22° C | 84% | 1013.9 hPa | 0 mm | - | - | - |
* Rain latest hour (hover to see other rain measurements)
** Current wind speed in m/s (hover to see current wind gust speed)